createdAt,value
2022-09-07T00:01:09.303Z,6.83
2022-09-07T00:03:37.871Z,7.00
2022-09-07T00:06:11.311Z,6.77
2022-09-07T00:08:42.322Z,6.60
2022-09-07T00:11:14.183Z,7.43
2022-09-07T00:13:43.811Z,7.10
2022-09-07T00:16:14.707Z,6.17
2022-09-07T00:18:45.982Z,7.37
2022-09-07T00:21:15.963Z,6.53
2022-09-07T00:23:45.862Z,7.27
2022-09-07T00:26:16.870Z,8.03
2022-09-07T00:28:46.105Z,6.60
2022-09-07T00:31:16.638Z,6.30
2022-09-07T00:33:45.490Z,6.53
2022-09-07T00:36:13.757Z,6.87
2022-09-07T00:38:42.270Z,8.67
2022-09-07T00:41:12.363Z,7.03
2022-09-07T00:43:42.678Z,6.93
2022-09-07T00:46:15.807Z,6.87
2022-09-07T00:48:48.315Z,7.00
2022-09-07T00:51:20.038Z,7.23
2022-09-07T00:53:53.715Z,7.47
2022-09-07T00:56:27.524Z,7.00
2022-09-07T00:58:56.778Z,7.87
2022-09-07T01:01:25.246Z,8.23
2022-09-07T01:03:56.358Z,9.23
2022-09-07T01:06:28.146Z,7.90
2022-09-07T01:09:00.461Z,7.70
2022-09-07T01:11:32.125Z,7.20
2022-09-07T01:14:00.376Z,7.67
2022-09-07T01:16:53.274Z,8.13
2022-09-07T01:19:59.286Z,8.80
2022-09-07T01:22:49.197Z,9.07
2022-09-07T01:25:28.554Z,7.43
2022-09-07T01:28:13.484Z,7.40
2022-09-07T01:30:47.976Z,8.03
2022-09-07T01:33:35.092Z,7.80
2022-09-07T01:36:14.077Z,7.47
2022-09-07T01:38:45.999Z,7.73
2022-09-07T01:41:19.267Z,7.70
2022-09-07T01:43:54.726Z,7.97
2022-09-07T01:46:27.987Z,7.53
2022-09-07T01:49:01.475Z,7.17
2022-09-07T01:51:33.684Z,7.47
2022-09-07T01:54:08.061Z,6.80
2022-09-07T01:56:39.895Z,10.10
2022-09-07T01:59:15.837Z,7.97
2022-09-07T02:01:51.269Z,7.07
2022-09-07T02:04:22.978Z,7.20
2022-09-07T02:06:57.469Z,7.17
2022-09-07T02:09:31.873Z,6.93
2022-09-07T02:12:04.255Z,6.47
2022-09-07T02:14:37.774Z,8.33
2022-09-07T02:17:10.572Z,7.73
2022-09-07T02:19:44.804Z,12.90
2022-09-07T02:22:17.315Z,8.27
2022-09-07T02:24:49.666Z,8.97
2022-09-07T02:27:22.709Z,6.50
2022-09-07T02:29:52.522Z,6.53
2022-09-07T02:32:20.876Z,7.07
2022-09-07T02:34:49.109Z,7.90
2022-09-07T02:37:19.581Z,6.80
2022-09-07T02:39:49.360Z,6.90
2022-09-07T02:42:17.617Z,6.17
2022-09-07T02:44:46.677Z,6.40
2022-09-07T02:47:26.016Z,6.23
2022-09-07T02:50:18.351Z,7.40
2022-09-07T02:52:59.416Z,6.53
2022-09-07T02:55:36.213Z,5.87
2022-09-07T02:58:20.376Z,6.17
2022-09-07T03:00:56.673Z,9.17
2022-09-07T03:03:37.144Z,6.93
2022-09-07T03:06:10.376Z,7.23
2022-09-07T03:08:43.847Z,6.70
2022-09-07T03:11:13.105Z,7.00
2022-09-07T03:13:41.272Z,7.50
2022-09-07T03:16:14.202Z,6.77
2022-09-07T03:18:44.817Z,6.03
2022-09-07T03:21:13.051Z,6.20
2022-09-07T03:23:41.222Z,6.27
2022-09-07T03:26:16.205Z,6.43
2022-09-07T03:28:44.371Z,6.77
2022-09-07T03:31:12.851Z,6.23
2022-09-07T03:33:41.146Z,7.13
2022-09-07T03:36:10.816Z,6.10
2022-09-07T03:38:38.989Z,6.27
2022-09-07T03:41:08.660Z,7.77
2022-09-07T03:43:36.966Z,9.23
2022-09-07T03:46:07.291Z,7.33
2022-09-07T03:48:36.532Z,6.67
2022-09-07T03:51:06.966Z,6.40
2022-09-07T03:53:38.242Z,5.90
2022-09-07T03:56:09.192Z,6.03
2022-09-07T03:58:37.652Z,5.70
2022-09-07T04:01:08.004Z,5.53
2022-09-07T04:03:36.584Z,5.90
2022-09-07T04:06:05.908Z,7.37
2022-09-07T04:08:37.882Z,5.40
2022-09-07T04:11:07.746Z,5.90
2022-09-07T04:13:37.264Z,5.80
2022-09-07T04:16:12.040Z,5.60
2022-09-07T04:18:40.527Z,5.70
2022-09-07T04:21:09.391Z,5.33
2022-09-07T04:23:40.518Z,6.10
2022-09-07T04:26:15.158Z,7.33
2022-09-07T04:28:43.380Z,7.60
2022-09-07T04:31:12.472Z,5.40
2022-09-07T04:33:40.659Z,5.70
2022-09-07T04:36:09.638Z,5.60
2022-09-07T04:38:40.928Z,5.50
2022-09-07T04:41:11.193Z,5.20
2022-09-07T04:43:40.394Z,5.13
2022-09-07T04:46:12.832Z,5.23
2022-09-07T04:48:41.109Z,6.03
2022-09-07T04:51:11.313Z,5.10
2022-09-07T04:53:40.815Z,5.20
2022-09-07T04:56:09.041Z,7.23
2022-09-07T04:58:37.511Z,6.03
2022-09-07T05:01:08.049Z,4.97
2022-09-07T05:03:39.400Z,4.50
2022-09-07T05:06:09.118Z,4.73
2022-09-07T05:08:38.576Z,4.20
2022-09-07T05:11:08.422Z,7.27
2022-09-07T05:13:36.689Z,5.00
2022-09-07T05:16:10.339Z,4.90
2022-09-07T05:18:38.853Z,9.03
2022-09-07T05:21:11.867Z,7.37
2022-09-07T05:23:40.276Z,5.73
2022-09-07T05:26:10.533Z,4.40
2022-09-07T05:28:39.056Z,5.00
2022-09-07T05:36:35.434Z,4.40
2022-09-07T05:39:05.382Z,4.80
2022-09-07T05:41:35.441Z,4.43
2022-09-07T05:46:52.963Z,4.40
2022-09-07T05:49:21.167Z,3.97
2022-09-07T05:51:49.570Z,5.43
2022-09-07T05:54:17.788Z,3.83
2022-09-07T05:56:47.531Z,3.77
2022-09-07T05:59:15.760Z,4.37
2022-09-07T06:01:44.397Z,4.00
2022-09-07T06:04:12.659Z,4.07
2022-09-07T06:06:40.736Z,4.73
2022-09-07T06:09:11.315Z,4.10
2022-09-07T06:11:39.753Z,4.53
2022-09-07T06:14:09.313Z,4.10
2022-09-07T06:16:37.692Z,4.43
2022-09-07T06:19:07.425Z,4.40
2022-09-07T06:21:37.632Z,4.43
2022-09-07T06:24:06.586Z,4.80
2022-09-07T06:26:34.866Z,4.67
2022-09-07T06:29:03.833Z,13.53
2022-09-07T06:31:33.929Z,4.20
2022-09-07T06:34:02.660Z,3.70
2022-09-07T06:36:31.144Z,4.37
2022-09-07T06:39:01.498Z,4.10
2022-09-07T06:44:21.920Z,4.03
2022-09-07T06:47:06.711Z,4.67
2022-09-07T06:49:35.037Z,4.00
2022-09-07T06:52:03.708Z,4.17
2022-09-07T06:57:20.347Z,5.03
2022-09-07T06:59:48.688Z,6.60
2022-09-07T07:02:18.268Z,7.63
2022-09-07T07:04:46.636Z,3.93
2022-09-07T07:07:15.194Z,3.73
2022-09-07T07:09:43.452Z,5.43
2022-09-07T07:12:11.954Z,4.33
2022-09-07T07:14:44.247Z,4.03
2022-09-07T07:17:13.504Z,3.97
2022-09-07T07:19:43.227Z,4.03
2022-09-07T07:24:59.640Z,4.23
2022-09-07T07:27:27.889Z,4.97
2022-09-07T07:29:56.100Z,4.60
2022-09-07T07:32:24.387Z,4.40
2022-09-07T07:34:53.861Z,5.77
2022-09-07T07:37:27.323Z,3.90
2022-09-07T07:42:45.201Z,4.23
2022-09-07T07:48:02.725Z,4.40
2022-09-07T07:50:32.967Z,4.37
2022-09-07T07:55:50.278Z,4.17
2022-09-07T07:58:18.751Z,4.93
2022-09-07T08:00:55.909Z,3.70
2022-09-07T08:03:25.839Z,4.20
2022-09-07T08:05:56.289Z,4.50
2022-09-07T08:08:25.189Z,4.23
2022-09-07T08:10:53.673Z,4.00
2022-09-07T08:13:22.319Z,4.90
2022-09-07T08:15:50.462Z,4.23
2022-09-07T08:18:19.174Z,5.20
2022-09-07T08:20:47.164Z,5.20
2022-09-07T08:23:16.671Z,4.43
2022-09-07T08:25:51.834Z,5.00
2022-09-07T08:28:20.267Z,4.50
2022-09-07T08:30:48.998Z,4.50
2022-09-07T08:33:17.415Z,5.17
2022-09-07T08:35:55.797Z,4.73
2022-09-07T08:38:25.429Z,7.63
2022-09-07T08:40:54.163Z,6.20
2022-09-07T08:43:35.279Z,4.50
2022-09-07T08:46:11.845Z,7.70
2022-09-07T08:48:40.989Z,5.10
2022-09-07T08:51:23.656Z,6.13
2022-09-07T08:53:54.252Z,6.07
2022-09-07T08:56:33.489Z,6.30
2022-09-07T08:59:05.847Z,5.77
2022-09-07T09:01:39.661Z,4.00
2022-09-07T09:06:11.116Z,5.03
2022-09-07T09:07:16.511Z,5.30
2022-09-07T09:10:22.816Z,6.27
2022-09-07T09:13:02.134Z,5.70
2022-09-07T09:15:42.777Z,4.27
2022-09-07T09:18:27.494Z,4.53
2022-09-07T09:20:57.044Z,7.67
2022-09-07T09:23:27.717Z,4.20
2022-09-07T09:26:01.632Z,4.03
2022-09-07T09:28:31.875Z,3.67
2022-09-07T09:31:00.757Z,5.37
2022-09-07T09:33:29.949Z,7.60
2022-09-07T09:36:00.006Z,3.90
2022-09-07T09:38:34.311Z,4.73
2022-09-07T09:41:07.981Z,4.40
2022-09-07T09:43:41.723Z,4.47
2022-09-07T09:46:21.560Z,4.40
2022-09-07T09:48:56.947Z,5.57
2022-09-07T09:54:24.850Z,6.30
2022-09-07T09:56:54.467Z,4.80
2022-09-07T10:05:27.669Z,3.87
2022-09-07T10:07:56.324Z,5.57
2022-09-07T10:10:24.845Z,4.23
2022-09-07T10:12:56.567Z,5.97
2022-09-07T10:15:32.858Z,5.50
2022-09-07T10:18:05.922Z,5.03
2022-09-07T10:20:36.821Z,3.83
2022-09-07T10:23:06.282Z,3.27
2022-09-07T10:25:37.304Z,3.93
2022-09-07T10:28:18.423Z,3.03
2022-09-07T10:31:14.556Z,3.83
2022-09-07T10:36:45.175Z,5.53
2022-09-07T10:39:18.287Z,3.53
2022-09-07T10:41:59.348Z,3.40
2022-09-07T10:44:42.974Z,3.40
2022-09-07T10:47:19.942Z,3.73
2022-09-07T10:52:49.029Z,4.77
2022-09-07T10:55:22.287Z,3.67
2022-09-07T10:58:01.399Z,5.17
2022-09-07T11:00:39.180Z,5.90
2022-09-07T11:03:26.062Z,3.90
2022-09-07T11:06:20.388Z,3.40
2022-09-07T11:09:17.541Z,3.20
2022-09-07T11:12:04.216Z,3.43
2022-09-07T11:14:37.862Z,5.43
2022-09-07T11:17:15.165Z,4.53
2022-09-07T11:19:48.053Z,3.80
2022-09-07T11:22:28.371Z,3.30
2022-09-07T11:27:54.051Z,4.77
2022-09-07T11:30:25.641Z,3.47
2022-09-07T11:33:02.503Z,4.40
2022-09-07T11:35:37.725Z,3.93
2022-09-07T11:38:14.754Z,4.00
2022-09-07T11:40:49.681Z,4.90
2022-09-07T11:43:23.432Z,4.00
2022-09-07T11:45:56.226Z,4.87
2022-09-07T11:48:33.240Z,6.10
2022-09-07T11:51:05.223Z,3.73
2022-09-07T11:53:37.917Z,3.77
2022-09-07T11:56:11.430Z,4.40
2022-09-07T11:59:00.384Z,3.90
2022-09-07T12:01:35.973Z,3.80
2022-09-07T12:04:29.654Z,3.30
2022-09-07T12:07:21.735Z,3.43
2022-09-07T12:10:16.869Z,3.27
2022-09-07T12:13:05.355Z,4.70
2022-09-07T12:15:44.721Z,3.83
2022-09-07T12:18:25.166Z,4.00
2022-09-07T12:20:54.688Z,3.73
2022-09-07T12:23:28.548Z,3.60
2022-09-07T12:26:37.632Z,3.50
2022-09-07T12:29:19.420Z,3.50
2022-09-07T12:35:01.630Z,5.73
2022-09-07T12:37:42.329Z,6.37
2022-09-07T12:40:46.779Z,4.40
2022-09-07T12:43:52.082Z,5.47
2022-09-07T12:46:41.771Z,4.00
2022-09-07T12:49:27.249Z,6.30
2022-09-07T12:52:14.876Z,4.00
2022-09-07T12:55:09.990Z,4.10
2022-09-07T12:57:47.619Z,6.60
2022-09-07T13:00:22.174Z,4.40
2022-09-07T13:09:27.186Z,3.97
2022-09-07T13:11:57.139Z,5.57
2022-09-07T13:14:28.125Z,4.10
2022-09-07T13:17:33.878Z,4.83
2022-09-07T13:20:18.237Z,5.47
2022-09-07T13:22:57.137Z,4.83
2022-09-07T13:25:45.599Z,7.73
2022-09-07T13:28:28.184Z,4.40
2022-09-07T13:31:26.054Z,4.70
2022-09-07T13:33:54.984Z,5.70
2022-09-07T13:36:26.997Z,4.60
2022-09-07T13:38:56.595Z,3.90
2022-09-07T13:41:28.229Z,3.10
2022-09-07T13:44:01.871Z,5.70
2022-09-07T13:46:45.106Z,4.57
2022-09-07T13:49:30.452Z,4.00
2022-09-07T13:52:06.675Z,5.80
2022-09-07T13:54:49.215Z,3.83
2022-09-07T13:57:26.393Z,3.80
2022-09-07T13:59:56.827Z,3.90
2022-09-07T14:02:28.466Z,5.40
2022-09-07T14:04:58.618Z,4.80
2022-09-07T14:07:28.284Z,4.20
2022-09-07T14:10:11.485Z,3.33
2022-09-07T14:12:44.421Z,4.30
2022-09-07T14:15:21.099Z,5.97
2022-09-07T14:17:52.403Z,3.50
2022-09-07T14:20:21.020Z,4.00
2022-09-07T14:22:53.370Z,3.90
2022-09-07T14:25:22.782Z,3.57
2022-09-07T14:27:51.125Z,3.67
2022-09-07T14:30:27.938Z,4.90
2022-09-07T14:32:58.091Z,5.53
2022-09-07T14:35:29.953Z,3.47
2022-09-07T14:38:03.337Z,3.90
2022-09-07T14:40:31.588Z,4.50
2022-09-07T14:42:59.613Z,4.80
2022-09-07T14:45:37.541Z,3.80
2022-09-07T14:48:14.742Z,5.10
2022-09-07T14:50:57.205Z,3.30
2022-09-07T14:53:34.714Z,4.57
2022-09-07T14:56:09.210Z,3.60
2022-09-07T14:58:37.230Z,7.17
2022-09-07T15:01:37.584Z,4.43
2022-09-07T15:04:18.746Z,3.80
2022-09-07T15:07:03.307Z,4.37
2022-09-07T15:09:37.744Z,4.73
2022-09-07T15:12:27.311Z,3.37
2022-09-07T15:15:12.504Z,3.30
2022-09-07T15:17:43.651Z,3.63
2022-09-07T15:20:37.832Z,4.13
2022-09-07T15:23:09.379Z,3.43
2022-09-07T15:25:37.761Z,3.00
2022-09-07T15:28:06.679Z,5.27
2022-09-07T15:30:35.091Z,4.90
2022-09-07T15:33:04.725Z,5.70
2022-09-07T15:35:32.842Z,4.50
2022-09-07T15:38:02.927Z,3.30
2022-09-07T15:40:56.204Z,3.00
2022-09-07T15:43:29.643Z,3.10
2022-09-07T15:45:57.811Z,3.90
2022-09-07T15:48:27.476Z,3.30
2022-09-07T15:51:04.301Z,3.33
2022-09-07T15:56:23.455Z,3.60
2022-09-07T15:58:53.549Z,3.70
2022-09-07T16:04:14.621Z,3.97
2022-09-07T16:06:43.369Z,4.37
2022-09-07T16:09:11.354Z,3.60
2022-09-07T16:11:39.369Z,5.50
2022-09-07T16:14:07.412Z,5.47
2022-09-07T16:19:24.900Z,4.13
2022-09-07T16:21:57.176Z,3.60
2022-09-07T16:24:27.940Z,3.97
2022-09-07T16:26:56.084Z,3.47
2022-09-07T16:29:24.747Z,3.60
2022-09-07T16:34:42.606Z,4.00
2022-09-07T16:37:10.682Z,4.23
2022-09-07T16:39:38.765Z,3.93
2022-09-07T16:42:07.679Z,4.53
2022-09-07T16:44:36.002Z,3.97
2022-09-07T16:47:04.421Z,3.97
2022-09-07T16:49:33.647Z,4.43
2022-09-07T16:52:05.246Z,4.10
2022-09-07T16:54:33.469Z,5.17
2022-09-07T16:57:01.556Z,4.30
2022-09-07T16:59:29.611Z,4.37
2022-09-07T17:01:57.736Z,4.00
2022-09-07T17:04:26.021Z,4.70
2022-09-07T17:06:54.438Z,4.27
2022-09-07T17:09:26.646Z,4.97
2022-09-07T17:11:54.740Z,4.93
2022-09-07T17:14:23.089Z,4.40
2022-09-07T17:16:51.448Z,3.97
2022-09-07T17:19:36.218Z,7.93
2022-09-07T17:22:05.139Z,6.93
2022-09-07T17:24:34.816Z,4.73
2022-09-07T17:27:03.558Z,4.70
2022-09-07T17:29:36.994Z,3.90
2022-09-07T17:34:55.323Z,4.43
2022-09-07T17:37:23.479Z,4.90
2022-09-07T17:39:53.524Z,4.77
2022-09-07T17:42:21.776Z,5.73
2022-09-07T17:44:52.742Z,5.30
2022-09-07T17:47:21.075Z,5.20
2022-09-07T17:49:49.434Z,5.13
2022-09-07T17:52:18.291Z,4.80
2022-09-07T17:54:46.431Z,4.03
2022-09-07T17:57:16.078Z,5.43
2022-09-07T18:02:38.000Z,5.93
2022-09-07T18:05:07.324Z,4.77
2022-09-07T18:07:36.071Z,5.23
2022-09-07T18:10:04.262Z,5.17
2022-09-07T18:12:33.800Z,4.50
2022-09-07T18:15:02.172Z,4.90
2022-09-07T18:17:30.451Z,5.10
2022-09-07T18:19:58.889Z,4.53
2022-09-07T18:22:27.012Z,4.70
2022-09-07T18:24:55.074Z,5.00
2022-09-07T18:27:25.658Z,4.50
2022-09-07T18:29:55.022Z,5.43
2022-09-07T18:32:23.480Z,6.40
2022-09-07T18:34:51.598Z,7.43
2022-09-07T18:37:19.752Z,5.83
2022-09-07T18:39:48.586Z,5.07
2022-09-07T18:42:16.727Z,5.47
2022-09-07T18:47:35.340Z,5.00
2022-09-07T18:50:03.491Z,5.53
2022-09-07T18:55:19.771Z,7.70
2022-09-07T18:57:48.121Z,6.40
2022-09-07T19:00:17.908Z,4.73
2022-09-07T19:02:50.724Z,5.70
2022-09-07T19:08:08.514Z,4.63
2022-09-07T19:10:37.641Z,6.40
2022-09-07T19:13:05.906Z,6.73
2022-09-07T19:15:38.021Z,7.47
2022-09-07T19:18:08.890Z,4.93
2022-09-07T19:20:38.541Z,4.50
2022-09-07T19:23:06.895Z,5.07
2022-09-07T19:25:35.597Z,5.47
2022-09-07T19:28:04.035Z,4.97
2022-09-07T19:30:34.859Z,6.17
2022-09-07T19:33:04.566Z,6.97
2022-09-07T19:35:37.752Z,4.30
2022-09-07T19:38:06.155Z,5.37
2022-09-07T19:40:34.772Z,4.80
2022-09-07T19:43:03.024Z,4.90
2022-09-07T19:45:31.211Z,5.20
2022-09-07T19:47:59.567Z,6.03
2022-09-07T19:50:28.281Z,4.93
2022-09-07T19:52:58.410Z,5.10
2022-09-07T19:55:26.591Z,5.30
2022-09-07T19:57:54.754Z,5.53
2022-09-07T20:00:24.727Z,6.50
2022-09-07T20:02:54.116Z,6.73
2022-09-07T20:05:23.876Z,5.53
2022-09-07T20:07:51.979Z,4.80
2022-09-07T20:10:21.425Z,5.30
2022-09-07T20:12:49.904Z,5.00
2022-09-07T20:15:18.243Z,4.50
2022-09-07T20:17:47.407Z,6.00
2022-09-07T20:20:15.804Z,4.93
2022-09-07T20:22:43.985Z,4.90
2022-09-07T20:25:13.349Z,5.17
2022-09-07T20:27:43.018Z,8.40
2022-09-07T20:30:12.290Z,4.93
2022-09-07T20:32:40.403Z,5.10
2022-09-07T20:35:09.175Z,5.97
2022-09-07T20:37:37.387Z,5.70
2022-09-07T20:40:07.151Z,4.83
2022-09-07T20:42:35.214Z,5.00
2022-09-07T20:45:05.397Z,4.90
2022-09-07T20:47:33.491Z,5.07
2022-09-07T20:50:03.624Z,5.60
2022-09-07T20:52:31.676Z,5.30
2022-09-07T20:54:59.914Z,6.30
2022-09-07T20:57:28.021Z,6.77
2022-09-07T20:59:56.152Z,5.73
2022-09-07T21:02:25.577Z,5.00
2022-09-07T21:04:53.654Z,6.10
2022-09-07T21:07:21.659Z,4.50
2022-09-07T21:09:49.746Z,4.97
2022-09-07T21:12:17.796Z,5.37
2022-09-07T21:14:46.054Z,6.10
2022-09-07T21:17:14.454Z,5.17
2022-09-07T21:19:43.864Z,5.97
2022-09-07T21:22:11.948Z,5.00
2022-09-07T21:24:40.100Z,6.73
2022-09-07T21:27:08.674Z,5.10
2022-09-07T21:29:36.740Z,5.80
2022-09-07T21:32:05.177Z,5.97
2022-09-07T21:34:33.240Z,6.43
2022-09-07T21:37:02.653Z,6.10
2022-09-07T21:39:30.799Z,5.60
2022-09-07T21:41:58.901Z,5.83
2022-09-07T21:44:26.916Z,4.83
2022-09-07T21:46:55.025Z,6.83
2022-09-07T21:49:23.368Z,7.90
2022-09-07T21:51:51.496Z,5.30
2022-09-07T21:54:20.837Z,5.20
2022-09-07T21:56:49.264Z,6.10
2022-09-07T21:59:17.294Z,6.10
2022-09-07T22:01:45.362Z,5.20
2022-09-07T22:04:13.513Z,7.43
2022-09-07T22:06:41.681Z,5.30
2022-09-07T22:09:09.956Z,5.30
2022-09-07T22:11:41.151Z,7.37
2022-09-07T22:14:13.980Z,6.27
2022-09-07T22:16:42.264Z,7.00
2022-09-07T22:19:10.352Z,7.83
2022-09-07T22:21:38.456Z,6.43
2022-09-07T22:24:08.138Z,5.53
2022-09-07T22:26:38.414Z,6.07
2022-09-07T22:29:09.428Z,5.27
2022-09-07T22:31:38.566Z,5.53
2022-09-07T22:34:09.290Z,6.93
2022-09-07T22:36:38.720Z,5.60
2022-09-07T22:39:09.999Z,6.50
2022-09-07T22:41:39.129Z,5.27
2022-09-07T22:44:11.369Z,5.73
2022-09-07T22:46:41.026Z,6.10
2022-09-07T22:49:11.783Z,5.70
2022-09-07T22:51:40.322Z,5.60
2022-09-07T22:54:09.084Z,6.03
2022-09-07T22:56:38.287Z,7.10
2022-09-07T22:59:09.261Z,6.60
2022-09-07T23:01:37.830Z,7.23
2022-09-07T23:04:07.385Z,6.20
2022-09-07T23:06:37.171Z,6.10
2022-09-07T23:09:08.352Z,6.70
2022-09-07T23:11:36.938Z,6.93
2022-09-07T23:14:06.772Z,7.13
2022-09-07T23:16:36.223Z,5.90
2022-09-07T23:19:05.065Z,6.60
2022-09-07T23:21:33.137Z,6.33
2022-09-07T23:24:01.362Z,5.67
2022-09-07T23:26:31.140Z,5.97
2022-09-07T23:29:02.250Z,5.30
2022-09-07T23:31:32.156Z,6.47
2022-09-07T23:34:02.808Z,6.83
2022-09-07T23:36:31.498Z,6.10
2022-09-07T23:39:01.141Z,6.10
2022-09-07T23:41:29.583Z,6.20
2022-09-07T23:43:58.062Z,6.40
2022-09-07T23:46:26.295Z,5.80
2022-09-07T23:48:54.466Z,7.07
2022-09-07T23:51:24.808Z,5.53
2022-09-07T23:53:53.494Z,7.93
2022-09-07T23:56:21.944Z,6.17
2022-09-07T23:58:49.990Z,6.97
